This is the latest recevied weather packets stored in our database for station/object N2MLB-WX. If no packets are shown the sender has not sent any weather packets the latest 10 day(s).
| Time | Temp. | Humidity | Pressure | Rain* | Wind** | Luminosity | Snow |
|---|---|---|---|---|---|---|---|
| 1777750640 | 8.33° C | 54% | 1011 hPa | 0 mm | - | 83 W/m² | - |
| 1777750339 | 8.89° C | 52% | 1011 hPa | 0 mm | - | 99 W/m² | - |
| 1777750039 | 10° C | 54% | 1011 hPa | 0 mm | - | 149 W/m² | - |
| 1777749739 | 7.78° C | 56% | 1011 hPa | 0 mm | - | 78 W/m² | - |
| 1777749439 | 7.78° C | 53% | 1011 hPa | 0 mm | - | 69 W/m² | - |
| 1777749139 | 7.78° C | 57% | 1011 hPa | 0 mm | - | 72 W/m² | - |
| 1777748840 | 7.78° C | 51% | 1011 hPa | 0 mm | - | 72 W/m² | - |
| 1777748540 | 8.33° C | 53% | 1011 hPa | 0 mm | - | 73 W/m² | - |
| 1777748239 | 8.33° C | 57% | 1011 hPa | 0 mm | - | 69 W/m² | - |
| 1777747939 | 8.33° C | 55% | 1011 hPa | 0 mm | - | 77 W/m² | - |
| 1777747640 | 8.33° C | 54% | 1011 hPa | 0 mm | - | 78 W/m² | - |
| 1777747340 | 8.89° C | 55% | 1011 hPa | 0 mm | - | 114 W/m² | - |
| 1777747042 | 9.44° C | 56% | 1011 hPa | 0 mm | - | 178 W/m² | - |
| 1777746743 | 7.78° C | 60% | 1011 hPa | 0 mm | - | 84 W/m² | - |
| 1777746440 | 8.89° C | 51% | 1011 hPa | 0 mm | - | 75 W/m² | - |
| 1777746139 | 9.44° C | 54% | 1011 hPa | 0 mm | - | 84 W/m² | - |
| 1777745839 | 7.78° C | 59% | 1011 hPa | 0 mm | - | 80 W/m² | - |
| 1777745539 | 7.22° C | 61% | 1011 hPa | 0 mm | - | 51 W/m² | - |
| 1777745239 | 7.22° C | 60% | 1011 hPa | 0 mm | - | 44 W/m² | - |
| 1777744940 | 8.33° C | 55% | 1011 hPa | 0 mm | - | 43 W/m² | - |
| 1777744639 | 7.78° C | 54% | 1011 hPa | 0 mm | - | 69 W/m² | - |
| 1777744345 | 8.89° C | 53% | 1011 hPa | 0 mm | - | 85 W/m² | - |
| 1777744040 | 8.89° C | 51% | 1011 hPa | 0 mm | - | 83 W/m² | - |
| 1777743740 | 9.44° C | 55% | 1011 hPa | 0 mm | - | 81 W/m² | - |
| 1777743440 | 8.33° C | 54% | 1011 hPa | 0 mm | - | 93 W/m² | - |
* Rain latest hour (hover to see other rain measurements)
** Current wind speed in m/s (hover to see current wind gust speed)